Time;durP1;ratioP1;P1;durP2;ratioP2;P2;SDS_P1;SDS_P2;PMS_P1;PMS_P2;Temp;Humidity;BMP_temperature;BMP_pressure;BME280_temperature;BME280_humidity;BME280_pressure;Samples;Min_cycle;Max_cycle;Signal;HPM_P1;HPM_P2
2022/11/02 00:00:51;;;;;;;;;82.00;76.75;;;;;18.21;61.41;99815.00;4960609;28;10422;-89
2022/11/02 00:03:31;;;;;;;;;83.25;78.25;;;;;18.36;61.29;99813.72;4959842;28;10660;-89
2022/11/02 00:06:02;;;;;;;;;83.25;76.25;;;;;18.45;60.70;99818.72;4958053;28;10464;-89
2022/11/02 00:08:33;;;;;;;;;79.25;70.75;;;;;18.71;59.74;99819.72;4926757;28;10436;-88
2022/11/02 00:11:01;;;;;;;;;84.25;78.50;;;;;18.65;60.01;99819.91;4926748;28;10467;-89
2022/11/02 00:13:32;;;;;;;;;87.25;79.75;;;;;18.50;60.38;99818.59;4885452;29;10730;-88
2022/11/02 00:16:04;;;;;;;;;74.50;64.00;;;;;18.54;59.32;99814.94;4884101;29;10544;-87
2022/11/02 00:18:37;;;;;;;;;76.25;66.50;;;;;18.83;57.92;99810.63;4903240;29;9999;-89
2022/11/02 00:21:09;;;;;;;;;83.00;75.00;;;;;18.78;58.99;99820.44;4924476;28;10111;-90
2022/11/02 00:23:41;;;;;;;;;79.25;69.50;;;;;18.87;58.41;99812.25;5013796;28;10356;-89
2022/11/02 00:26:10;;;;;;;;;78.00;69.25;;;;;18.87;57.59;99820.19;4991720;28;10191;-89
2022/11/02 00:28:42;;;;;;;;;76.25;64.50;;;;;18.98;57.14;99810.16;4981961;28;9808;-89
2022/11/02 00:31:11;;;;;;;;;79.25;71.00;;;;;18.85;58.67;99812.31;5008065;28;9719;-90
2022/11/02 00:33:41;;;;;;;;;72.50;60.25;;;;;18.89;58.22;99811.28;5000876;28;10277;-91
2022/11/02 00:36:13;;;;;;;;;78.00;71.75;;;;;19.11;57.42;99810.66;5003120;28;10123;-88
2022/11/02 00:38:44;;;;;;;;;80.25;71.50;;;;;19.18;57.50;99811.31;5008070;28;11337;-86
2022/11/02 00:41:13;;;;;;;;;84.50;79.25;;;;;19.45;57.06;99812.19;5037935;28;10217;-89
2022/11/02 00:44:19;;;;;;;;;66.25;49.50;;;;;19.57;56.68;99813.59;5049697;28;10509;-87
2022/11/02 00:47:40;;;;;;;;;87.75;79.25;;;;;19.80;55.61;99816.34;4962836;28;11070;-90
2022/11/02 00:50:17;;;;;;;;;86.50;79.25;;;;;19.84;55.22;99823.25;4914372;29;10843;-93
2022/11/02 00:52:49;;;;;;;;;93.50;86.75;;;;;19.19;57.75;99826.28;4927242;29;11161;-91
2022/11/02 00:58:20;;;;;;;;;89.25;83.50;;;;;17.82;63.63;99838.84;4953425;29;11112;-91
2022/11/02 01:01:19;;;;;;;;;95.00;89.00;;;;;17.58;64.73;99836.84;4938029;29;10951;-92
2022/11/02 01:05:50;;;;;;;;;94.25;86.00;;;;;17.63;64.62;99846.34;4938419;29;11025;-91
2022/11/02 01:14:55;;;;;;;;;97.75;90.75;;;;;16.83;68.39;99864.00;4932387;29;11309;-90
2022/11/02 01:27:47;;;;;;;;;106.25;98.50;;;;;17.92;62.41;99866.78;4896479;29;10960;-88
2022/11/02 01:30:16;;;;;;;;;105.25;97.75;;;;;17.76;63.41;99860.13;4865925;29;11413;-88
2022/11/02 01:32:46;;;;;;;;;115.25;109.50;;;;;16.99;66.55;99859.25;4896628;29;11568;-88
2022/11/02 01:35:16;;;;;;;;;119.75;110.50;;;;;16.88;67.18;99869.16;4897589;29;11637;-87
2022/11/02 01:37:46;;;;;;;;;110.00;104.50;;;;;16.73;67.66;99875.63;4897439;29;11668;-86
2022/11/02 01:40:16;;;;;;;;;117.75;108.75;;;;;16.55;68.59;99877.69;4884021;29;11633;-88
2022/11/02 01:42:47;;;;;;;;;107.25;97.00;;;;;16.51;68.42;99881.28;4897218;29;11776;-89
2022/11/02 01:45:18;;;;;;;;;118.75;107.50;;;;;16.61;68.22;99883.75;4913431;29;11632;-88
2022/11/02 01:48:13;;;;;;;;;110.00;104.75;;;;;16.62;67.64;99890.75;4917312;29;11669;-89
2022/11/02 01:50:47;;;;;;;;;109.00;95.00;;;;;16.55;67.95;99882.97;4879482;29;11629;-89
2022/11/02 01:53:30;;;;;;;;;108.50;99.75;;;;;16.70;67.54;99886.19;4858549;29;11684;-90
2022/11/02 01:56:01;;;;;;;;;116.75;106.25;;;;;16.59;67.56;99880.28;4888085;29;11686;-90
2022/11/02 01:58:58;;;;;;;;;114.00;108.25;;;;;16.44;68.53;99877.03;4867651;29;11735;-93
2022/11/02 02:01:28;;;;;;;;;108.75;103.25;;;;;16.58;67.72;99871.53;4942565;29;11678;-89
2022/11/02 02:03:59;;;;;;;;;99.25;95.00;;;;;16.68;67.50;99873.06;4967612;28;11631;-90
2022/11/02 02:06:39;;;;;;;;;112.00;100.00;;;;;16.71;67.33;99875.63;4969353;29;11664;-90
2022/11/02 02:09:11;;;;;;;;;112.25;99.00;;;;;16.34;68.64;99871.09;4927338;28;11702;-91
2022/11/02 02:11:42;;;;;;;;;114.25;102.50;;;;;16.56;67.77;99862.78;4974742;28;11726;-91
2022/11/02 02:14:18;;;;;;;;;106.25;95.25;;;;;16.76;66.90;99868.50;4967999;28;11783;-93
2022/11/02 02:17:31;;;;;;;;;105.25;97.50;;;;;16.98;65.87;99852.28;4953354;28;11590;-90
2022/11/02 02:20:05;;;;;;;;;102.50;93.25;;;;;17.02;65.67;99869.75;4921456;29;11672;-87
2022/11/02 02:23:11;;;;;;;;;111.00;100.75;;;;;17.23;64.62;99868.41;4923017;29;11713;-89
2022/11/02 02:26:13;;;;;;;;;102.25;95.25;;;;;17.33;64.07;99863.78;4937807;29;11782;-87
2022/11/02 02:28:49;;;;;;;;;109.75;100.25;;;;;17.27;63.87;99872.69;4893824;29;11636;-88
2022/11/02 02:31:27;;;;;;;;;107.50;98.75;;;;;17.28;64.09;99870.94;4884863;29;11755;-88
2022/11/02 02:34:02;;;;;;;;;112.75;97.50;;;;;17.31;63.69;99870.84;4868740;29;11681;-90
2022/11/02 02:36:36;;;;;;;;;112.25;101.75;;;;;17.40;63.62;99869.78;4884952;29;11693;-91
2022/11/02 02:39:12;;;;;;;;;110.25;99.00;;;;;17.38;63.32;99864.56;4892409;29;11661;-91
2022/11/02 02:41:45;;;;;;;;;113.75;108.00;;;;;17.40;63.33;99873.28;4938539;29;11669;-93
2022/11/02 02:44:22;;;;;;;;;113.00;105.00;;;;;17.48;63.17;99873.09;4941522;29;11639;-91
2022/11/02 02:46:59;;;;;;;;;119.25;108.75;;;;;17.44;63.44;99874.94;4941896;29;11656;-90
2022/11/02 02:49:36;;;;;;;;;106.75;102.25;;;;;17.47;63.40;99872.25;4925511;29;11644;-88
2022/11/02 02:52:06;;;;;;;;;102.25;96.25;;;;;17.44;63.26;99871.44;4966104;28;11707;-89
2022/11/02 02:54:41;;;;;;;;;111.25;101.00;;;;;17.43;63.20;99862.69;4997231;28;11328;-87
2022/11/02 02:57:15;;;;;;;;;95.50;89.25;;;;;17.45;63.60;99873.19;5017540;28;11594;-89
2022/11/02 02:59:48;;;;;;;;;106.50;102.50;;;;;17.41;62.99;99875.03;5011060;28;11657;-90
2022/11/02 03:02:23;;;;;;;;;109.50;100.25;;;;;17.41;62.84;99880.31;5013095;28;11570;-91
2022/11/02 03:04:54;;;;;;;;;110.25;103.00;;;;;17.38;62.95;99882.16;5020519;28;11641;-90
2022/11/02 03:07:27;;;;;;;;;117.00;104.00;;;;;16.30;66.95;99879.09;5072649;28;11665;-88
2022/11/02 03:10:15;;;;;;;;;99.50;93.00;;;;;16.55;66.22;99882.09;5041821;28;11576;-91
2022/11/02 03:13:10;;;;;;;;;113.25;100.50;;;;;16.56;66.03;99883.84;5059135;28;11436;-91
2022/11/02 03:15:55;;;;;;;;;114.00;98.25;;;;;16.57;65.63;99885.56;5025821;28;11368;-90
2022/11/02 03:18:47;;;;;;;;;97.75;88.75;;;;;16.62;65.63;99886.34;4961186;28;11370;-89
2022/11/02 03:21:34;;;;;;;;;109.25;98.50;;;;;16.66;64.72;99880.13;4963511;28;11918;-90
2022/11/02 03:24:14;;;;;;;;;106.00;96.25;;;;;16.72;64.98;99892.31;4915446;28;11133;-90
2022/11/02 03:26:52;;;;;;;;;92.00;87.75;;;;;16.57;64.80;99890.84;4962910;28;11169;-90
2022/11/02 03:29:50;;;;;;;;;104.75;95.00;;;;;16.53;64.90;99895.28;4919400;29;10904;-89
2022/11/02 03:32:29;;;;;;;;;102.00;90.75;;;;;16.21;66.00;99905.56;4942177;29;10997;-88
2022/11/02 03:35:04;;;;;;;;;99.50;92.75;;;;;15.58;68.92;99910.06;4941777;29;10878;-92
2022/11/02 03:37:39;;;;;;;;;105.00;92.75;;;;;15.57;68.79;99908.31;4927112;28;10917;-91
2022/11/02 03:40:18;;;;;;;;;95.75;84.75;;;;;15.59;68.70;99911.78;4960523;28;10989;-89
2022/11/02 03:42:53;;;;;;;;;95.50;87.00;;;;;15.62;68.69;99916.16;4963490;28;11517;-90
2022/11/02 03:45:47;;;;;;;;;92.75;85.00;;;;;15.93;67.34;99906.03;4980775;28;11061;-90
2022/11/02 03:48:26;;;;;;;;;99.75;92.00;;;;;16.18;66.43;99916.97;4959757;28;10636;-89
2022/11/02 03:51:00;;;;;;;;;94.00;87.25;;;;;15.82;67.98;99915.84;4959012;28;10580;-89
2022/11/02 03:53:56;;;;;;;;;86.25;77.50;;;;;16.09;67.03;99909.28;4929093;29;10588;-90
2022/11/02 03:56:32;;;;;;;;;101.25;90.25;;;;;15.86;67.71;99905.28;4969094;28;10784;-90
2022/11/02 03:59:08;;;;;;;;;97.75;84.75;;;;;15.49;69.34;99915.44;4929414;28;11114;-89
2022/11/02 04:01:42;;;;;;;;;98.75;89.75;;;;;15.78;68.25;99900.13;4942384;28;10875;-88
2022/11/02 04:04:19;;;;;;;;;100.25;89.25;;;;;15.97;67.41;99898.06;4915358;28;10622;-89
2022/11/02 04:06:50;;;;;;;;;102.00;95.00;;;;;16.05;67.49;99894.41;4910510;28;10716;-89
2022/11/02 04:09:19;;;;;;;;;96.00;85.25;;;;;16.22;66.66;99888.84;4924863;28;11138;-89
2022/11/02 04:15:01;;;;;;;;;136.50;124.50;;;;;16.15;66.79;99893.38;4977618;28;10743;-87
2022/11/02 04:27:29;;;;;;;;;105.00;92.00;;;;;16.68;64.93;99909.06;4949613;28;11023;-88
2022/11/02 04:30:01;;;;;;;;;112.50;97.00;;;;;16.77;63.96;99908.88;4950883;28;10935;-86
2022/11/02 04:35:26;;;;;;;;;118.75;102.75;;;;;16.89;63.52;99910.44;5033369;28;10650;-89
2022/11/02 04:44:06;;;;;;;;;104.25;93.00;;;;;16.93;62.80;99912.94;4993280;28;10776;-88
2022/11/02 04:46:42;;;;;;;;;99.50;90.25;;;;;16.97;62.99;99908.50;4969787;28;10807;-87
2022/11/02 04:49:13;;;;;;;;;106.00;92.75;;;;;17.01;62.61;99911.94;4972582;28;11412;-88
2022/11/02 04:51:45;;;;;;;;;103.50;93.00;;;;;17.06;62.75;99903.03;4984940;28;10657;-84
2022/11/02 04:54:21;;;;;;;;;96.00;88.50;;;;;17.03;62.47;99918.94;5019531;28;10434;-91
2022/11/02 04:56:56;;;;;;;;;99.75;88.75;;;;;17.01;62.54;99914.56;5011030;28;10562;-87
2022/11/02 04:59:27;;;;;;;;;100.75;84.75;;;;;17.00;62.82;99921.63;4976818;28;10425;-88
2022/11/02 05:02:28;;;;;;;;;97.25;86.50;;;;;17.03;62.39;99921.56;5003019;28;10472;-88
2022/11/02 05:05:05;;;;;;;;;103.75;90.00;;;;;17.00;62.25;99923.38;4961728;28;10686;-91
2022/11/02 05:11:50;;;;;;;;;103.50;90.25;;;;;16.03;65.81;99941.81;4974350;28;10685;-89
2022/11/02 05:14:30;;;;;;;;;97.00;84.50;;;;;15.01;69.63;99958.13;4942167;28;11136;-90
2022/11/02 05:17:00;;;;;;;;;108.25;89.75;;;;;14.77;71.07;99954.88;4960461;28;10489;-89
2022/11/02 05:19:52;;;;;;;;;87.25;70.25;;;;;14.80;71.28;99961.84;4957921;28;10422;-90
2022/11/02 05:22:25;;;;;;;;;105.00;97.25;;;;;14.45;72.59;99967.44;4912226;29;10485;-89
2022/11/02 05:25:02;;;;;;;;;103.25;82.00;;;;;13.81;75.41;99972.34;4928553;28;11690;-89
2022/11/02 05:27:37;;;;;;;;;117.50;90.50;;;;;13.77;75.80;99965.38;4976635;28;11129;-87
2022/11/02 05:30:08;;;;;;;;;112.75;90.00;;;;;13.49;76.75;99965.53;4957918;28;10779;-89
2022/11/02 05:32:41;;;;;;;;;108.25;85.25;;;;;13.43;77.26;99965.59;4992782;28;10295;-90
2022/11/02 05:35:14;;;;;;;;;95.75;85.50;;;;;13.25;78.75;99967.38;4957555;28;10471;-90
2022/11/02 05:37:45;;;;;;;;;100.25;82.25;;;;;13.58;77.77;99973.34;4974837;28;10160;-91
2022/11/02 05:40:24;;;;;;;;;103.00;90.25;;;;;14.13;75.53;99971.22;4966340;28;10334;-91
2022/11/02 05:43:01;;;;;;;;;71.00;49.00;;;;;14.34;74.82;99976.28;4990949;28;10145;-89
2022/11/02 05:46:49;;;;;;;;;98.75;88.75;;;;;14.86;73.00;99976.66;4876495;29;10827;-90
2022/11/02 05:49:26;;;;;;;;;91.00;80.50;;;;;15.12;71.63;99979.88;4896898;29;10262;-88
2022/11/02 05:52:26;;;;;;;;;92.25;83.25;;;;;15.35;70.61;99979.59;4896912;29;9681;-90
2022/11/02 05:55:29;;;;;;;;;88.75;79.00;;;;;15.48;69.27;99982.03;4894101;29;10221;-88
2022/11/02 05:58:02;;;;;;;;;92.25;79.50;;;;;15.45;69.08;99985.59;4860563;29;10605;-89
2022/11/02 06:00:32;;;;;;;;;91.25;79.00;;;;;15.67;68.63;99993.16;4866614;29;10114;-90
2022/11/02 06:03:03;;;;;;;;;93.00;84.75;;;;;15.09;69.51;100000.94;4880955;29;10269;-90
2022/11/02 06:05:33;;;;;;;;;88.50;75.75;;;;;14.17;72.88;100013.13;4923884;29;10812;-89
2022/11/02 06:11:31;;;;;;;;;88.00;78.25;;;;;13.50;76.08;100024.94;4869708;29;10483;-91
2022/11/02 06:14:41;;;;;;;;;91.25;74.75;;;;;13.07;77.68;100036.41;4871454;29;10045;-91
2022/11/02 06:17:28;;;;;;;;;91.25;83.75;;;;;12.93;78.82;100037.31;4829281;29;10391;-90
2022/11/02 06:20:20;;;;;;;;;88.25;76.50;;;;;12.56;81.13;100040.00;4838319;29;10669;-92
2022/11/02 06:23:37;;;;;;;;;88.50;73.75;;;;;12.88;80.01;100046.03;4800379;29;9929;-92
2022/11/02 06:26:42;;;;;;;;;88.75;76.00;;;;;13.39;79.03;100048.56;4758766;30;10061;-91
2022/11/02 06:32:22;;;;;;;;;84.00;67.75;;;;;13.01;78.75;100057.38;4770057;30;10318;-90
2022/11/02 06:34:52;;;;;;;;;90.50;74.50;;;;;12.87;79.39;100060.03;4770623;29;10559;-89
2022/11/02 06:37:22;;;;;;;;;90.00;82.00;;;;;13.40;78.15;100062.50;4804509;29;9884;-90
2022/11/02 06:39:52;;;;;;;;;91.00;76.75;;;;;13.72;76.82;100066.75;4801228;29;10264;-86
2022/11/02 06:42:22;;;;;;;;;86.50;75.50;;;;;13.57;77.32;100060.72;4832369;29;10303;-88
2022/11/02 06:44:54;;;;;;;;;91.00;74.25;;;;;13.28;77.85;100068.63;4827347;29;10445;-89
2022/11/02 06:47:40;;;;;;;;;84.00;70.25;;;;;13.27;78.18;100070.41;4854568;29;9816;-92
2022/11/02 06:50:14;;;;;;;;;86.50;70.25;;;;;13.72;76.63;100067.59;4887395;29;9851;-87
2022/11/02 06:53:03;;;;;;;;;90.00;74.75;;;;;13.74;75.92;100065.00;4972284;28;10378;-87
2022/11/02 06:55:56;;;;;;;;;92.50;83.75;;;;;14.14;74.67;100070.00;4856449;29;9954;-91
2022/11/02 06:58:26;;;;;;;;;101.75;90.00;;;;;14.17;73.99;100073.47;4864451;29;9839;-88
2022/11/02 07:01:01;;;;;;;;;91.33;71.67;;;;;14.38;72.59;100076.81;4864047;29;10215;-86
2022/11/02 07:03:32;;;;;;;;;88.25;71.50;;;;;14.05;73.74;100073.56;4858655;29;9524;-82
2022/11/02 07:06:02;;;;;;;;;85.75;71.25;;;;;14.11;73.92;100063.03;4900163;29;9813;-82
2022/11/02 07:08:31;;;;;;;;;84.67;70.33;;;;;14.23;73.04;100067.31;4882348;29;9748;-85
2022/11/02 07:10:59;;;;;;;;;83.00;64.67;;;;;14.55;71.00;100076.69;4898369;29;9411;-80
2022/11/02 07:13:28;;;;;;;;;85.67;71.33;;;;;14.85;69.95;100069.47;4921804;28;9361;-81
2022/11/02 07:15:57;;;;;;;;;83.00;69.33;;;;;15.07;68.76;100073.63;4934750;28;9379;-79
2022/11/02 07:18:27;;;;;;;;;79.67;60.33;;;;;15.10;67.43;100080.59;4910298;29;9223;-80
2022/11/02 07:20:58;;;;;;;;;76.00;60.00;;;;;15.21;66.57;100076.09;4987365;28;9024;-81
2022/11/02 07:23:27;;;;;;;;;72.25;59.25;;;;;15.42;65.97;100079.38;5012225;28;8879;-81
2022/11/02 07:25:56;;;;;;;;;79.00;59.75;;;;;15.43;64.98;100081.13;4998878;28;8879;-81
2022/11/02 07:28:25;;;;;;;;;72.25;54.25;;;;;15.44;64.62;100083.72;5013328;28;8974;-83
2022/11/02 07:30:55;;;;;;;;;74.75;57.00;;;;;15.60;64.21;100087.91;5000038;28;9046;-79
2022/11/02 07:33:27;;;;;;;;;78.25;59.75;;;;;15.68;63.54;100085.19;5006793;28;8875;-81
2022/11/02 07:35:56;;;;;;;;;70.50;55.75;;;;;15.52;62.96;100092.41;5041501;28;8875;-81
2022/11/02 07:38:25;;;;;;;;;77.25;58.50;;;;;15.39;63.55;100093.44;5006223;28;8900;-81
2022/11/02 07:40:56;;;;;;;;;72.00;56.00;;;;;15.45;63.65;100093.34;5008234;28;8903;-80
2022/11/02 07:43:25;;;;;;;;;69.00;53.75;;;;;15.37;63.09;100103.94;5037096;28;8848;-80
2022/11/02 07:46:14;;;;;;;;;66.00;52.75;;;;;15.44;62.82;100111.75;4999223;28;8975;-79
2022/11/02 07:48:44;;;;;;;;;70.00;54.50;;;;;15.48;62.71;100116.97;4984003;28;9413;-79
2022/11/02 07:51:14;;;;;;;;;57.00;43.75;;;;;15.53;62.14;100123.03;5001711;28;8843;-79
2022/11/02 07:53:45;;;;;;;;;70.75;54.00;;;;;15.64;62.39;100124.69;5001154;28;9662;-79
2022/11/02 07:56:14;;;;;;;;;68.00;51.75;;;;;15.77;61.71;100119.28;4981730;28;8863;-80
2022/11/02 07:58:42;;;;;;;;;72.00;55.25;;;;;15.79;61.75;100117.50;4963838;28;9620;-80
2022/11/02 08:01:12;;;;;;;;;69.00;55.00;;;;;15.82;61.19;100113.94;4995107;28;8846;-81
2022/11/02 08:03:41;;;;;;;;;63.75;50.25;;;;;15.88;61.15;100113.88;4978851;28;8882;-80
2022/11/02 08:06:12;;;;;;;;;68.25;52.25;;;;;15.80;61.59;100121.00;4990497;28;8931;-80
2022/11/02 08:08:41;;;;;;;;;68.00;53.00;;;;;15.90;61.18;100120.00;4993176;28;8858;-84
2022/11/02 08:11:31;;;;;;;;;67.25;54.00;;;;;15.87;61.22;100120.03;4987756;28;9013;-82
2022/11/02 08:14:01;;;;;;;;;68.00;53.25;;;;;15.96;61.13;100121.69;4983301;28;8898;-74
2022/11/02 08:16:30;;;;;;;;;63.50;49.00;;;;;15.98;61.01;100117.25;5004697;28;8834;-72
2022/11/02 08:18:59;;;;;;;;;68.50;50.75;;;;;16.02;61.04;100118.94;4986867;28;8944;-72
2022/11/02 08:21:29;;;;;;;;;63.25;50.75;;;;;16.07;60.55;100118.91;4991210;28;8899;-73
2022/11/02 08:23:57;;;;;;;;;60.25;48.00;;;;;16.17;60.79;100121.38;5013922;28;8871;-76
2022/11/02 08:26:26;;;;;;;;;66.25;51.00;;;;;16.11;60.74;100115.34;5032847;28;8874;-80
2022/11/02 08:29:00;;;;;;;;;66.50;52.50;;;;;16.18;60.79;100111.69;5057686;28;8894;-83
2022/11/02 08:31:31;;;;;;;;;60.00;49.25;;;;;16.26;60.96;100114.25;5083845;28;8852;-83
2022/11/02 08:34:02;;;;;;;;;68.50;53.75;;;;;16.33;61.03;100102.72;5007862;28;9677;-83
2022/11/02 08:36:35;;;;;;;;;63.25;49.50;;;;;16.18;61.52;100102.06;5034832;28;8887;-83
2022/11/02 08:39:05;;;;;;;;;60.25;48.00;;;;;16.15;61.05;100102.09;5034253;28;8883;-82
2022/11/02 08:41:35;;;;;;;;;57.75;47.25;;;;;16.26;61.17;100101.09;5008074;28;8893;-84
2022/11/02 08:44:27;;;;;;;;;62.25;49.00;;;;;16.39;60.83;100097.38;5040600;28;9580;-79
2022/11/02 08:46:57;;;;;;;;;61.00;48.25;;;;;16.54;60.29;100104.13;5033759;28;9063;-84
2022/11/02 08:49:31;;;;;;;;;61.75;49.00;;;;;16.65;59.94;100106.59;5046215;28;8880;-81
2022/11/02 08:52:03;;;;;;;;;70.25;53.75;;;;;16.79;60.14;100114.31;5048145;28;8868;-85
2022/11/02 08:54:33;;;;;;;;;64.50;51.50;;;;;16.87;60.14;100109.78;5033082;28;8853;-84
2022/11/02 08:57:02;;;;;;;;;61.75;46.75;;;;;16.95;59.58;100107.88;5049455;28;8862;-81
2022/11/02 08:59:32;;;;;;;;;61.50;49.25;;;;;16.97;59.13;100113.13;5068585;28;8882;-82
2022/11/02 09:02:02;;;;;;;;;63.00;50.00;;;;;16.92;59.18;100107.97;5019540;28;8846;-82
2022/11/02 09:04:35;;;;;;;;;66.25;51.00;;;;;16.99;59.15;100112.19;5034112;28;8906;-81
2022/11/02 09:07:05;;;;;;;;;63.00;50.00;;;;;17.12;59.04;100111.09;5008451;28;8863;-82
2022/11/02 09:09:34;;;;;;;;;68.50;52.25;;;;;17.27;58.45;100103.78;4975776;28;8873;-82
2022/11/02 09:12:04;;;;;;;;;62.25;50.75;;;;;17.36;58.35;100089.59;4978799;28;8922;-82
2022/11/02 09:14:33;;;;;;;;;64.50;50.25;;;;;17.50;58.05;100093.69;5002256;28;8889;-80
2022/11/02 09:17:01;;;;;;;;;67.00;51.50;;;;;17.59;58.04;100086.47;4996527;28;8882;-81
2022/11/02 09:19:35;;;;;;;;;67.00;49.50;;;;;17.74;57.48;100086.16;4983304;28;8862;-81
2022/11/02 09:22:06;;;;;;;;;71.00;53.25;;;;;17.87;57.07;100084.16;5022270;28;8874;-80
2022/11/02 09:24:35;;;;;;;;;66.25;52.25;;;;;17.81;57.36;100090.41;4983042;28;8881;-81
2022/11/02 09:27:07;;;;;;;;;67.75;53.00;;;;;17.76;57.04;100086.97;5005878;28;8854;-79
2022/11/02 09:29:37;;;;;;;;;65.50;50.75;;;;;17.87;57.21;100084.16;4946210;28;8866;-82
2022/11/02 09:32:05;;;;;;;;;69.25;52.25;;;;;17.98;56.71;100081.28;4976921;28;8862;-80
2022/11/02 09:34:36;;;;;;;;;71.75;55.00;;;;;17.99;56.68;100085.66;5003232;28;8883;-82
2022/11/02 09:37:07;;;;;;;;;63.50;51.75;;;;;17.98;57.19;100086.56;5008910;28;8867;-82
2022/11/02 09:39:37;;;;;;;;;66.25;51.75;;;;;18.00;57.12;100096.19;4955791;28;8863;-84
2022/11/02 09:42:19;;;;;;;;;68.25;54.00;;;;;18.17;56.79;100085.25;4987923;28;9021;-83
2022/11/02 09:44:54;;;;;;;;;70.75;54.50;;;;;18.21;56.41;100080.75;4987872;28;8864;-81
2022/11/02 09:47:24;;;;;;;;;69.25;52.25;;;;;18.31;56.20;100082.25;4971593;28;9172;-79
2022/11/02 09:50:18;;;;;;;;;67.50;53.00;;;;;18.46;55.79;100075.75;4988208;28;8865;-81
2022/11/02 09:52:55;;;;;;;;;67.50;51.75;;;;;18.34;55.96;100078.72;4987644;28;8872;-81
2022/11/02 09:55:30;;;;;;;;;70.50;54.00;;;;;18.35;55.62;100068.09;5003749;28;8850;-82
2022/11/02 09:58:04;;;;;;;;;67.50;54.50;;;;;18.27;55.99;100056.84;5027850;28;8881;-81
2022/11/02 10:00:40;;;;;;;;;71.00;55.00;;;;;18.30;56.22;100054.16;5033227;28;9059;-82
2022/11/02 10:03:23;;;;;;;;;72.50;56.25;;;;;18.41;55.73;100057.41;5046618;28;8926;-80
2022/11/02 10:05:58;;;;;;;;;69.50;53.75;;;;;18.35;55.70;100054.88;5061359;28;8875;-81
2022/11/02 10:08:39;;;;;;;;;73.50;55.75;;;;;18.49;55.58;100049.28;5063327;28;8872;-82
2022/11/02 10:11:31;;;;;;;;;67.00;54.50;;;;;18.57;55.09;100047.31;5026672;28;8858;-83
2022/11/02 10:14:07;;;;;;;;;75.00;57.75;;;;;18.45;55.57;100056.41;4993617;28;9605;-83
2022/11/02 10:16:40;;;;;;;;;73.75;59.00;;;;;18.38;55.42;100068.03;4996896;28;9645;-80
2022/11/02 10:19:15;;;;;;;;;75.33;62.67;;;;;18.23;55.82;100068.38;5013079;28;8879;-83
2022/11/02 10:21:48;;;;;;;;;73.75;60.25;;;;;17.07;59.38;100088.34;5026519;28;9139;-78
2022/11/02 10:24:25;;;;;;;;;79.25;62.50;;;;;15.71;64.13;100090.41;5039487;28;8863;-81
2022/11/02 10:26:59;;;;;;;;;78.00;62.75;;;;;15.87;64.50;100070.06;5041161;28;8910;-81
2022/11/02 10:29:49;;;;;;;;;77.00;60.00;;;;;16.43;62.95;100064.84;5061201;28;8874;-84
2022/11/02 10:32:18;;;;;;;;;74.00;57.50;;;;;16.41;62.17;100065.75;5030703;28;9072;-80
2022/11/02 10:35:17;;;;;;;;;79.00;62.33;;;;;16.61;61.57;100068.91;5047118;28;9106;-82
2022/11/02 10:38:22;;;;;;;;;80.67;65.33;;;;;16.06;63.99;100068.03;5022546;28;8939;-79
2022/11/02 10:41:12;;;;;;;;;72.25;55.00;;;;;16.62;62.20;100067.19;5000653;28;9160;-80
2022/11/02 10:44:03;;;;;;;;;82.67;67.67;;;;;15.05;67.24;100083.28;5017041;28;8983;-84
2022/11/02 10:46:43;;;;;;;;;78.67;62.00;;;;;15.25;67.23;100069.91;5027355;28;9121;-84
2022/11/02 10:49:26;;;;;;;;;77.67;63.67;;;;;15.80;65.62;100057.88;5011308;28;9856;-83
2022/11/02 10:52:17;;;;;;;;;73.00;56.25;;;;;15.61;66.14;100054.59;4949671;28;9025;-80
2022/11/02 10:54:49;;;;;;;;;68.50;54.75;;;;;15.15;67.96;100047.28;4956849;28;9068;-85
2022/11/02 10:57:25;;;;;;;;;70.75;55.50;;;;;15.19;68.02;100044.56;4982408;28;8874;-78
2022/11/02 11:00:22;;;;;;;;;71.50;57.00;;;;;14.90;68.80;100041.41;4994005;28;8860;-85
2022/11/02 11:03:09;;;;;;;;;70.50;54.00;;;;;15.32;67.60;100047.94;4970311;28;8914;-81
2022/11/02 11:05:58;;;;;;;;;71.25;56.25;;;;;15.93;65.93;100037.53;4960977;28;8877;-80
2022/11/02 11:08:36;;;;;;;;;69.25;55.75;;;;;16.25;64.32;100033.56;4977892;28;8887;-81
2022/11/02 11:11:19;;;;;;;;;69.75;56.50;;;;;16.67;62.77;100037.25;4967010;28;8895;-80
2022/11/02 11:13:58;;;;;;;;;65.75;50.50;;;;;16.42;63.30;100035.91;4964822;28;8888;-80
2022/11/02 11:16:51;;;;;;;;;70.00;54.50;;;;;16.74;62.57;100036.22;4961540;28;8882;-79
2022/11/02 11:19:24;;;;;;;;;69.00;54.00;;;;;16.62;62.35;100031.19;5006111;28;8856;-81
2022/11/02 11:22:26;;;;;;;;;69.75;52.75;;;;;16.21;64.19;100042.38;4954523;28;8860;-83
2022/11/02 11:25:20;;;;;;;;;73.00;55.00;;;;;15.73;65.77;100045.69;4996018;28;8859;-80
2022/11/02 11:27:57;;;;;;;;;71.00;54.75;;;;;15.67;66.31;100038.75;4995645;28;8855;-79
2022/11/02 11:30:28;;;;;;;;;72.00;52.25;;;;;15.81;65.29;100037.72;4994605;28;8829;-80
2022/11/02 11:33:21;;;;;;;;;72.25;54.00;;;;;14.86;69.75;100037.94;4979615;28;8990;-82
2022/11/02 11:35:51;;;;;;;;;67.50;52.50;;;;;14.74;70.32;100044.16;4995988;28;8852;-82
2022/11/02 11:38:25;;;;;;;;;71.50;57.50;;;;;14.71;70.46;100036.34;5030575;28;8874;-80
2022/11/02 11:40:55;;;;;;;;;63.50;49.75;;;;;14.92;69.91;100027.38;5018883;28;8856;-81
2022/11/02 11:43:28;;;;;;;;;74.00;58.00;;;;;15.24;68.46;100033.16;5051161;28;8877;-82
2022/11/02 11:46:00;;;;;;;;;77.50;59.00;;;;;14.73;71.13;100031.09;5032433;28;8945;-80
2022/11/02 11:48:38;;;;;;;;;77.00;57.75;;;;;14.94;69.77;100032.63;5050264;28;8839;-80
2022/11/02 11:51:29;;;;;;;;;75.75;56.50;;;;;14.72;70.46;100035.44;5054646;28;8864;-81
2022/11/02 11:54:18;;;;;;;;;74.50;57.25;;;;;14.92;70.52;100032.63;5049843;28;8850;-82
2022/11/02 11:56:49;;;;;;;;;72.25;57.25;;;;;14.78;70.65;100032.78;5025548;28;8877;-85
2022/11/02 11:59:24;;;;;;;;;73.00;57.75;;;;;14.89;70.39;100022.16;5012465;28;8966;-82
2022/11/02 12:01:57;;;;;;;;;67.25;52.25;;;;;14.56;72.17;100013.69;5004395;28;8857;-84
2022/11/02 12:04:28;;;;;;;;;78.00;56.75;;;;;14.93;70.70;100018.63;5006381;28;9596;-83
2022/11/02 12:07:29;;;;;;;;;76.00;57.00;;;;;14.92;70.37;100010.75;5034145;28;8870;-83
2022/11/02 12:10:09;;;;;;;;;77.25;60.00;;;;;14.65;71.75;100004.03;5029422;28;8878;-81
2022/11/02 12:12:53;;;;;;;;;77.50;58.00;;;;;14.79;71.43;99999.50;5021360;28;8864;-81
2022/11/02 12:15:42;;;;;;;;;85.25;68.00;;;;;14.67;71.56;100007.50;5013323;28;8865;-80
2022/11/02 12:18:32;;;;;;;;;79.50;60.00;;;;;14.20;73.81;100005.25;5020715;28;8864;-81
2022/11/02 12:21:37;;;;;;;;;79.25;59.50;;;;;14.11;74.51;99993.97;4969837;28;8884;-83
2022/11/02 12:24:24;;;;;;;;;80.00;62.00;;;;;14.27;73.94;99999.97;4953901;28;8884;-85
2022/11/02 12:27:28;;;;;;;;;77.25;58.25;;;;;14.72;72.49;99987.31;4970212;28;8883;-80
2022/11/02 12:30:15;;;;;;;;;76.00;61.75;;;;;15.19;70.27;99992.03;4935698;28;8882;-83
2022/11/02 12:33:04;;;;;;;;;79.50;61.75;;;;;15.63;68.84;99987.06;4891423;29;8883;-82
2022/11/02 12:35:56;;;;;;;;;79.25;63.00;;;;;16.18;67.43;99980.13;4877255;29;8883;-83
2022/11/02 12:38:49;;;;;;;;;77.50;58.00;;;;;16.08;66.35;99983.81;4843746;29;9624;-83
2022/11/02 12:41:40;;;;;;;;;78.25;59.25;;;;;15.65;67.87;99985.31;4860277;29;8880;-81
2022/11/02 12:44:26;;;;;;;;;72.00;58.00;;;;;15.27;69.65;99996.34;4896839;29;8929;-83
2022/11/02 12:47:06;;;;;;;;;77.75;57.75;;;;;14.97;70.81;99983.56;4933886;29;9010;-84
2022/11/02 12:49:45;;;;;;;;;73.00;56.50;;;;;14.60;71.96;99990.94;4897729;29;8967;-82
2022/11/02 12:52:28;;;;;;;;;75.50;57.00;;;;;14.72;71.95;99988.19;4944764;28;8962;-84
2022/11/02 12:55:03;;;;;;;;;71.75;55.25;;;;;15.23;70.12;99981.50;4956890;28;8866;-83
2022/11/02 12:57:39;;;;;;;;;71.50;56.50;;;;;15.16;70.30;99991.19;4960552;28;9607;-82